sensor_id;sensor_type;location;lat;lon;timestamp;P1;durP1;ratioP1;P2;durP2;ratioP2
82526;SDS011;72188;41.974;21.456;2024-01-16T00:01:56;211.55;;;104.30;;
82526;SDS011;72188;41.974;21.456;2024-01-16T00:04:22;192.27;;;102.13;;
82526;SDS011;72188;41.974;21.456;2024-01-16T00:06:48;189.57;;;102.63;;
82526;SDS011;72188;41.974;21.456;2024-01-16T00:09:14;185.88;;;98.03;;
82526;SDS011;72188;41.974;21.456;2024-01-16T00:11:40;202.73;;;101.10;;
82526;SDS011;72188;41.974;21.456;2024-01-16T00:14:06;192.50;;;96.75;;
82526;SDS011;72188;41.974;21.456;2024-01-16T00:16:32;199.68;;;92.88;;
82526;SDS011;72188;41.974;21.456;2024-01-16T00:18:59;203.43;;;99.50;;
82526;SDS011;72188;41.974;21.456;2024-01-16T00:21:25;191.10;;;98.72;;
82526;SDS011;72188;41.974;21.456;2024-01-16T00:23:51;196.02;;;96.03;;
82526;SDS011;72188;41.974;21.456;2024-01-16T00:26:20;193.23;;;93.88;;
82526;SDS011;72188;41.974;21.456;2024-01-16T00:28:46;203.23;;;100.25;;
82526;SDS011;72188;41.974;21.456;2024-01-16T00:31:12;183.77;;;88.70;;
82526;SDS011;72188;41.974;21.456;2024-01-16T00:33:38;194.25;;;95.20;;
82526;SDS011;72188;41.974;21.456;2024-01-16T00:36:05;179.35;;;88.60;;
82526;SDS011;72188;41.974;21.456;2024-01-16T00:38:34;192.75;;;89.65;;
82526;SDS011;72188;41.974;21.456;2024-01-16T00:41:00;186.93;;;93.70;;
82526;SDS011;72188;41.974;21.456;2024-01-16T00:43:26;181.52;;;90.82;;
82526;SDS011;72188;41.974;21.456;2024-01-16T00:45:52;178.80;;;84.43;;
82526;SDS011;72188;41.974;21.456;2024-01-16T00:48:19;176.43;;;84.90;;
82526;SDS011;72188;41.974;21.456;2024-01-16T00:50:46;165.55;;;80.10;;
82526;SDS011;72188;41.974;21.456;2024-01-16T00:53:15;169.75;;;81.20;;
82526;SDS011;72188;41.974;21.456;2024-01-16T00:55:41;166.82;;;83.53;;
82526;SDS011;72188;41.974;21.456;2024-01-16T00:58:07;160.93;;;81.55;;
82526;SDS011;72188;41.974;21.456;2024-01-16T01:00:33;171.88;;;84.10;;
82526;SDS011;72188;41.974;21.456;2024-01-16T01:03:00;166.70;;;81.53;;
82526;SDS011;72188;41.974;21.456;2024-01-16T01:05:28;158.02;;;77.38;;
82526;SDS011;72188;41.974;21.456;2024-01-16T01:07:55;163.55;;;81.80;;
82526;SDS011;72188;41.974;21.456;2024-01-16T01:10:21;161.23;;;85.00;;
82526;SDS011;72188;41.974;21.456;2024-01-16T01:12:47;172.38;;;89.78;;
82526;SDS011;72188;41.974;21.456;2024-01-16T01:15:13;176.70;;;85.38;;
82526;SDS011;72188;41.974;21.456;2024-01-16T01:17:40;155.98;;;72.80;;
82526;SDS011;72188;41.974;21.456;2024-01-16T01:20:06;173.38;;;87.07;;
82526;SDS011;72188;41.974;21.456;2024-01-16T01:22:32;178.18;;;90.25;;
82526;SDS011;72188;41.974;21.456;2024-01-16T01:24:58;148.60;;;77.10;;
82526;SDS011;72188;41.974;21.456;2024-01-16T01:27:25;170.15;;;86.65;;
82526;SDS011;72188;41.974;21.456;2024-01-16T01:29:51;166.48;;;83.25;;
82526;SDS011;72188;41.974;21.456;2024-01-16T01:32:17;163.88;;;85.40;;
82526;SDS011;72188;41.974;21.456;2024-01-16T01:34:43;156.73;;;81.30;;
82526;SDS011;72188;41.974;21.456;2024-01-16T01:37:09;168.35;;;81.32;;
82526;SDS011;72188;41.974;21.456;2024-01-16T01:39:35;155.50;;;80.70;;
82526;SDS011;72188;41.974;21.456;2024-01-16T01:42:01;137.68;;;70.13;;
82526;SDS011;72188;41.974;21.456;2024-01-16T01:44:27;139.70;;;70.30;;
82526;SDS011;72188;41.974;21.456;2024-01-16T01:46:54;150.98;;;71.28;;
82526;SDS011;72188;41.974;21.456;2024-01-16T01:49:20;141.82;;;68.35;;
82526;SDS011;72188;41.974;21.456;2024-01-16T01:51:47;127.38;;;67.20;;
82526;SDS011;72188;41.974;21.456;2024-01-16T01:54:14;128.60;;;66.20;;
82526;SDS011;72188;41.974;21.456;2024-01-16T01:56:42;139.35;;;74.13;;
82526;SDS011;72188;41.974;21.456;2024-01-16T01:59:09;147.57;;;76.20;;
82526;SDS011;72188;41.974;21.456;2024-01-16T02:01:36;132.48;;;69.22;;
82526;SDS011;72188;41.974;21.456;2024-01-16T02:04:03;129.48;;;66.35;;
82526;SDS011;72188;41.974;21.456;2024-01-16T02:06:30;142.65;;;70.93;;
82526;SDS011;72188;41.974;21.456;2024-01-16T02:08:56;164.65;;;79.38;;
82526;SDS011;72188;41.974;21.456;2024-01-16T02:11:22;171.90;;;83.70;;
82526;SDS011;72188;41.974;21.456;2024-01-16T02:13:48;158.07;;;81.55;;
82526;SDS011;72188;41.974;21.456;2024-01-16T02:16:18;175.48;;;84.82;;
82526;SDS011;72188;41.974;21.456;2024-01-16T02:18:45;161.40;;;78.25;;
82526;SDS011;72188;41.974;21.456;2024-01-16T02:21:11;172.50;;;83.35;;
82526;SDS011;72188;41.974;21.456;2024-01-16T02:23:38;154.75;;;74.72;;
82526;SDS011;72188;41.974;21.456;2024-01-16T02:26:04;165.18;;;83.50;;
82526;SDS011;72188;41.974;21.456;2024-01-16T02:28:30;164.02;;;85.88;;
82526;SDS011;72188;41.974;21.456;2024-01-16T02:30:56;165.52;;;85.03;;
82526;SDS011;72188;41.974;21.456;2024-01-16T02:33:22;168.52;;;88.82;;
82526;SDS011;72188;41.974;21.456;2024-01-16T02:35:48;172.10;;;88.97;;
82526;SDS011;72188;41.974;21.456;2024-01-16T02:38:14;169.95;;;85.88;;
82526;SDS011;72188;41.974;21.456;2024-01-16T02:40:40;162.48;;;83.50;;
82526;SDS011;72188;41.974;21.456;2024-01-16T02:43:06;174.50;;;91.30;;
82526;SDS011;72188;41.974;21.456;2024-01-16T02:45:33;169.85;;;86.57;;
82526;SDS011;72188;41.974;21.456;2024-01-16T02:47:59;173.23;;;87.50;;
82526;SDS011;72188;41.974;21.456;2024-01-16T02:50:25;171.00;;;87.82;;
82526;SDS011;72188;41.974;21.456;2024-01-16T02:52:51;168.35;;;85.85;;
82526;SDS011;72188;41.974;21.456;2024-01-16T02:55:17;160.38;;;80.85;;
82526;SDS011;72188;41.974;21.456;2024-01-16T02:57:44;160.77;;;75.70;;
82526;SDS011;72188;41.974;21.456;2024-01-16T03:00:10;160.63;;;81.88;;
82526;SDS011;72188;41.974;21.456;2024-01-16T03:02:36;160.57;;;81.15;;
82526;SDS011;72188;41.974;21.456;2024-01-16T03:05:03;138.90;;;71.50;;
82526;SDS011;72188;41.974;21.456;2024-01-16T03:07:30;161.55;;;77.93;;
82526;SDS011;72188;41.974;21.456;2024-01-16T03:09:56;147.77;;;73.85;;
82526;SDS011;72188;41.974;21.456;2024-01-16T03:12:22;136.20;;;64.25;;
82526;SDS011;72188;41.974;21.456;2024-01-16T03:14:48;145.55;;;74.05;;
82526;SDS011;72188;41.974;21.456;2024-01-16T03:17:14;150.07;;;73.72;;
82526;SDS011;72188;41.974;21.456;2024-01-16T03:19:41;150.05;;;76.93;;
82526;SDS011;72188;41.974;21.456;2024-01-16T03:22:08;155.90;;;81.45;;
82526;SDS011;72188;41.974;21.456;2024-01-16T03:24:34;170.50;;;86.70;;
82526;SDS011;72188;41.974;21.456;2024-01-16T03:27:01;157.50;;;80.38;;
82526;SDS011;72188;41.974;21.456;2024-01-16T03:29:27;156.98;;;85.43;;
82526;SDS011;72188;41.974;21.456;2024-01-16T03:31:53;177.20;;;88.20;;
82526;SDS011;72188;41.974;21.456;2024-01-16T03:34:19;169.80;;;88.15;;
82526;SDS011;72188;41.974;21.456;2024-01-16T03:36:45;172.00;;;84.70;;
82526;SDS011;72188;41.974;21.456;2024-01-16T03:39:11;160.18;;;81.00;;
82526;SDS011;72188;41.974;21.456;2024-01-16T03:41:37;166.35;;;84.03;;
82526;SDS011;72188;41.974;21.456;2024-01-16T03:44:03;163.07;;;81.70;;
82526;SDS011;72188;41.974;21.456;2024-01-16T03:46:29;156.15;;;80.38;;
82526;SDS011;72188;41.974;21.456;2024-01-16T03:48:55;149.27;;;78.82;;
82526;SDS011;72188;41.974;21.456;2024-01-16T03:51:22;163.55;;;81.75;;
82526;SDS011;72188;41.974;21.456;2024-01-16T03:53:48;153.02;;;77.95;;
82526;SDS011;72188;41.974;21.456;2024-01-16T03:56:14;156.38;;;79.05;;
82526;SDS011;72188;41.974;21.456;2024-01-16T03:58:41;158.95;;;79.15;;
82526;SDS011;72188;41.974;21.456;2024-01-16T04:01:07;168.10;;;82.88;;
82526;SDS011;72188;41.974;21.456;2024-01-16T04:03:33;97.82;;;46.80;;
82526;SDS011;72188;41.974;21.456;2024-01-16T04:06:03;113.55;;;60.75;;
82526;SDS011;72188;41.974;21.456;2024-01-16T04:08:30;150.88;;;77.50;;
82526;SDS011;72188;41.974;21.456;2024-01-16T04:11:00;143.32;;;71.38;;
82526;SDS011;72188;41.974;21.456;2024-01-16T04:13:26;139.35;;;78.15;;
82526;SDS011;72188;41.974;21.456;2024-01-16T04:15:52;135.63;;;67.47;;
82526;SDS011;72188;41.974;21.456;2024-01-16T04:18:18;118.30;;;59.42;;
82526;SDS011;72188;41.974;21.456;2024-01-16T04:20:44;126.70;;;58.03;;
82526;SDS011;72188;41.974;21.456;2024-01-16T04:23:10;114.07;;;59.08;;
82526;SDS011;72188;41.974;21.456;2024-01-16T04:25:36;88.55;;;44.88;;
82526;SDS011;72188;41.974;21.456;2024-01-16T04:28:02;107.45;;;56.13;;
82526;SDS011;72188;41.974;21.456;2024-01-16T04:30:29;97.65;;;51.55;;
82526;SDS011;72188;41.974;21.456;2024-01-16T04:32:55;103.30;;;54.50;;
82526;SDS011;72188;41.974;21.456;2024-01-16T04:35:21;100.95;;;53.28;;
82526;SDS011;72188;41.974;21.456;2024-01-16T04:37:47;48.80;;;29.10;;
82526;SDS011;72188;41.974;21.456;2024-01-16T04:40:13;81.97;;;44.83;;
82526;SDS011;72188;41.974;21.456;2024-01-16T04:42:40;87.78;;;49.50;;
82526;SDS011;72188;41.974;21.456;2024-01-16T04:45:07;45.35;;;22.40;;
82526;SDS011;72188;41.974;21.456;2024-01-16T04:47:33;93.03;;;47.33;;
82526;SDS011;72188;41.974;21.456;2024-01-16T04:49:59;109.43;;;54.47;;
82526;SDS011;72188;41.974;21.456;2024-01-16T04:52:25;109.00;;;55.40;;
82526;SDS011;72188;41.974;21.456;2024-01-16T04:54:52;102.72;;;56.53;;
82526;SDS011;72188;41.974;21.456;2024-01-16T04:57:18;94.70;;;47.97;;
82526;SDS011;72188;41.974;21.456;2024-01-16T04:59:44;106.95;;;59.00;;
82526;SDS011;72188;41.974;21.456;2024-01-16T05:02:10;113.65;;;57.90;;
82526;SDS011;72188;41.974;21.456;2024-01-16T05:04:37;116.68;;;59.80;;
82526;SDS011;72188;41.974;21.456;2024-01-16T05:07:03;108.18;;;56.45;;
82526;SDS011;72188;41.974;21.456;2024-01-16T05:09:29;115.82;;;60.67;;
82526;SDS011;72188;41.974;21.456;2024-01-16T05:11:56;110.65;;;59.65;;
82526;SDS011;72188;41.974;21.456;2024-01-16T05:14:22;85.82;;;44.35;;
82526;SDS011;72188;41.974;21.456;2024-01-16T05:19:15;106.43;;;58.97;;
82526;SDS011;72188;41.974;21.456;2024-01-16T05:21:42;128.05;;;63.83;;
82526;SDS011;72188;41.974;21.456;2024-01-16T05:24:08;129.38;;;62.88;;
82526;SDS011;72188;41.974;21.456;2024-01-16T05:26:34;123.03;;;62.00;;
82526;SDS011;72188;41.974;21.456;2024-01-16T05:29:00;130.43;;;65.07;;
82526;SDS011;72188;41.974;21.456;2024-01-16T05:31:26;123.38;;;65.45;;
82526;SDS011;72188;41.974;21.456;2024-01-16T05:33:52;119.03;;;63.38;;
82526;SDS011;72188;41.974;21.456;2024-01-16T05:36:18;126.25;;;61.78;;
82526;SDS011;72188;41.974;21.456;2024-01-16T05:38:44;120.43;;;64.85;;
82526;SDS011;72188;41.974;21.456;2024-01-16T05:41:10;115.47;;;61.45;;
82526;SDS011;72188;41.974;21.456;2024-01-16T05:43:36;127.45;;;64.07;;
82526;SDS011;72188;41.974;21.456;2024-01-16T05:46:03;129.77;;;67.40;;
82526;SDS011;72188;41.974;21.456;2024-01-16T05:48:29;121.15;;;64.68;;
82526;SDS011;72188;41.974;21.456;2024-01-16T05:50:55;120.35;;;66.35;;
82526;SDS011;72188;41.974;21.456;2024-01-16T05:53:21;118.05;;;64.00;;
82526;SDS011;72188;41.974;21.456;2024-01-16T05:55:47;128.77;;;69.22;;
82526;SDS011;72188;41.974;21.456;2024-01-16T05:58:13;135.20;;;75.13;;
82526;SDS011;72188;41.974;21.456;2024-01-16T06:00:39;127.05;;;70.13;;
82526;SDS011;72188;41.974;21.456;2024-01-16T06:03:05;125.97;;;66.72;;
82526;SDS011;72188;41.974;21.456;2024-01-16T06:05:32;135.48;;;69.60;;
82526;SDS011;72188;41.974;21.456;2024-01-16T06:07:58;124.78;;;68.65;;
82526;SDS011;72188;41.974;21.456;2024-01-16T06:10:24;131.00;;;69.45;;
82526;SDS011;72188;41.974;21.456;2024-01-16T06:12:50;135.68;;;70.18;;
82526;SDS011;72188;41.974;21.456;2024-01-16T06:15:16;138.13;;;70.60;;
82526;SDS011;72188;41.974;21.456;2024-01-16T06:17:42;138.73;;;73.97;;
82526;SDS011;72188;41.974;21.456;2024-01-16T06:20:08;132.52;;;67.53;;
82526;SDS011;72188;41.974;21.456;2024-01-16T06:22:34;123.30;;;65.90;;
82526;SDS011;72188;41.974;21.456;2024-01-16T06:25:00;134.93;;;70.88;;
82526;SDS011;72188;41.974;21.456;2024-01-16T06:27:27;138.27;;;73.93;;
82526;SDS011;72188;41.974;21.456;2024-01-16T06:29:53;144.57;;;73.13;;
82526;SDS011;72188;41.974;21.456;2024-01-16T06:32:19;126.43;;;69.35;;
82526;SDS011;72188;41.974;21.456;2024-01-16T06:34:45;134.32;;;73.70;;
82526;SDS011;72188;41.974;21.456;2024-01-16T06:37:11;133.45;;;70.90;;
82526;SDS011;72188;41.974;21.456;2024-01-16T06:39:37;146.75;;;83.55;;
82526;SDS011;72188;41.974;21.456;2024-01-16T06:42:04;153.32;;;79.55;;
82526;SDS011;72188;41.974;21.456;2024-01-16T06:44:31;144.35;;;74.63;;
82526;SDS011;72188;41.974;21.456;2024-01-16T06:46:57;135.82;;;74.28;;
82526;SDS011;72188;41.974;21.456;2024-01-16T06:49:23;162.38;;;89.10;;
82526;SDS011;72188;41.974;21.456;2024-01-16T06:51:49;158.93;;;87.00;;
82526;SDS011;72188;41.974;21.456;2024-01-16T06:54:15;150.75;;;82.55;;
82526;SDS011;72188;41.974;21.456;2024-01-16T06:56:41;138.40;;;77.47;;
82526;SDS011;72188;41.974;21.456;2024-01-16T06:59:07;138.00;;;76.25;;
82526;SDS011;72188;41.974;21.456;2024-01-16T07:01:33;127.75;;;71.85;;
82526;SDS011;72188;41.974;21.456;2024-01-16T07:03:59;141.60;;;71.68;;
82526;SDS011;72188;41.974;21.456;2024-01-16T07:06:26;127.00;;;66.57;;
82526;SDS011;72188;41.974;21.456;2024-01-16T07:08:52;132.77;;;73.90;;
82526;SDS011;72188;41.974;21.456;2024-01-16T07:11:18;132.95;;;72.38;;
82526;SDS011;72188;41.974;21.456;2024-01-16T07:13:46;129.23;;;68.63;;
82526;SDS011;72188;41.974;21.456;2024-01-16T07:16:12;116.35;;;61.75;;
82526;SDS011;72188;41.974;21.456;2024-01-16T07:18:39;127.22;;;68.20;;
82526;SDS011;72188;41.974;21.456;2024-01-16T07:21:15;128.55;;;64.38;;
82526;SDS011;72188;41.974;21.456;2024-01-16T07:23:41;118.50;;;68.13;;
82526;SDS011;72188;41.974;21.456;2024-01-16T07:26:07;111.95;;;62.00;;
82526;SDS011;72188;41.974;21.456;2024-01-16T07:28:33;120.93;;;60.78;;
82526;SDS011;72188;41.974;21.456;2024-01-16T07:30:59;153.05;;;79.85;;
82526;SDS011;72188;41.974;21.456;2024-01-16T07:33:26;149.93;;;78.20;;
82526;SDS011;72188;41.974;21.456;2024-01-16T07:35:52;153.68;;;78.90;;
82526;SDS011;72188;41.974;21.456;2024-01-16T07:38:18;125.35;;;67.97;;
82526;SDS011;72188;41.974;21.456;2024-01-16T07:40:44;119.03;;;66.80;;
82526;SDS011;72188;41.974;21.456;2024-01-16T07:43:10;126.00;;;68.13;;
82526;SDS011;72188;41.974;21.456;2024-01-16T07:45:37;118.57;;;64.15;;
82526;SDS011;72188;41.974;21.456;2024-01-16T07:48:03;114.43;;;63.08;;
82526;SDS011;72188;41.974;21.456;2024-01-16T07:50:29;106.32;;;56.05;;
82526;SDS011;72188;41.974;21.456;2024-01-16T07:52:55;102.18;;;55.83;;
82526;SDS011;72188;41.974;21.456;2024-01-16T07:55:22;95.88;;;50.42;;
82526;SDS011;72188;41.974;21.456;2024-01-16T07:57:48;85.28;;;46.67;;
82526;SDS011;72188;41.974;21.456;2024-01-16T08:00:14;52.03;;;27.98;;
82526;SDS011;72188;41.974;21.456;2024-01-16T08:02:40;52.95;;;29.70;;
82526;SDS011;72188;41.974;21.456;2024-01-16T08:05:07;102.22;;;53.72;;
82526;SDS011;72188;41.974;21.456;2024-01-16T08:07:33;17.75;;;9.95;;
82526;SDS011;72188;41.974;21.456;2024-01-16T08:09:59;6.47;;;4.15;;
82526;SDS011;72188;41.974;21.456;2024-01-16T08:12:26;5.15;;;3.58;;
82526;SDS011;72188;41.974;21.456;2024-01-16T08:14:52;5.68;;;3.47;;
82526;SDS011;72188;41.974;21.456;2024-01-16T08:17:18;7.30;;;4.07;;
82526;SDS011;72188;41.974;21.456;2024-01-16T08:19:44;8.15;;;4.28;;
82526;SDS011;72188;41.974;21.456;2024-01-16T08:22:10;5.45;;;4.28;;
82526;SDS011;72188;41.974;21.456;2024-01-16T08:24:36;5.78;;;3.63;;
82526;SDS011;72188;41.974;21.456;2024-01-16T08:27:03;4.57;;;3.33;;
82526;SDS011;72188;41.974;21.456;2024-01-16T08:29:29;7.32;;;3.63;;
82526;SDS011;72188;41.974;21.456;2024-01-16T08:31:55;9.70;;;7.80;;
82526;SDS011;72188;41.974;21.456;2024-01-16T08:34:21;7.15;;;4.00;;
82526;SDS011;72188;41.974;21.456;2024-01-16T08:36:47;9.25;;;4.93;;
82526;SDS011;72188;41.974;21.456;2024-01-16T08:39:13;7.10;;;4.35;;
82526;SDS011;72188;41.974;21.456;2024-01-16T08:41:42;7.50;;;4.90;;
82526;SDS011;72188;41.974;21.456;2024-01-16T08:44:10;8.45;;;4.15;;
82526;SDS011;72188;41.974;21.456;2024-01-16T08:46:36;16.85;;;10.43;;
82526;SDS011;72188;41.974;21.456;2024-01-16T08:49:02;8.00;;;4.65;;
82526;SDS011;72188;41.974;21.456;2024-01-16T08:51:28;10.40;;;5.78;;
82526;SDS011;72188;41.974;21.456;2024-01-16T08:53:54;9.13;;;5.88;;
82526;SDS011;72188;41.974;21.456;2024-01-16T08:56:21;11.52;;;6.90;;
82526;SDS011;72188;41.974;21.456;2024-01-16T08:58:47;13.55;;;7.43;;
82526;SDS011;72188;41.974;21.456;2024-01-16T09:01:13;10.35;;;6.72;;
82526;SDS011;72188;41.974;21.456;2024-01-16T09:03:40;11.90;;;6.00;;
82526;SDS011;72188;41.974;21.456;2024-01-16T09:06:08;15.30;;;8.32;;
82526;SDS011;72188;41.974;21.456;2024-01-16T09:08:35;10.73;;;6.88;;
82526;SDS011;72188;41.974;21.456;2024-01-16T09:11:01;18.83;;;8.77;;
82526;SDS011;72188;41.974;21.456;2024-01-16T09:13:27;9.90;;;5.93;;
82526;SDS011;72188;41.974;21.456;2024-01-16T09:15:54;11.30;;;7.13;;
82526;SDS011;72188;41.974;21.456;2024-01-16T09:18:20;10.40;;;7.13;;
82526;SDS011;72188;41.974;21.456;2024-01-16T09:20:46;14.95;;;8.38;;
82526;SDS011;72188;41.974;21.456;2024-01-16T09:23:13;20.38;;;8.93;;
82526;SDS011;72188;41.974;21.456;2024-01-16T09:25:39;12.75;;;7.25;;
82526;SDS011;72188;41.974;21.456;2024-01-16T09:28:05;14.60;;;9.15;;
82526;SDS011;72188;41.974;21.456;2024-01-16T09:30:32;11.68;;;7.70;;
82526;SDS011;72188;41.974;21.456;2024-01-16T09:32:58;11.13;;;7.03;;
82526;SDS011;72188;41.974;21.456;2024-01-16T09:35:24;19.63;;;10.80;;
82526;SDS011;72188;41.974;21.456;2024-01-16T09:37:50;10.95;;;6.05;;
82526;SDS011;72188;41.974;21.456;2024-01-16T09:40:16;8.50;;;4.90;;
82526;SDS011;72188;41.974;21.456;2024-01-16T09:42:42;9.80;;;5.60;;
82526;SDS011;72188;41.974;21.456;2024-01-16T09:45:10;12.85;;;7.15;;
82526;SDS011;72188;41.974;21.456;2024-01-16T09:47:38;12.65;;;7.68;;
82526;SDS011;72188;41.974;21.456;2024-01-16T09:50:05;9.18;;;5.20;;
82526;SDS011;72188;41.974;21.456;2024-01-16T09:52:31;16.60;;;9.68;;
82526;SDS011;72188;41.974;21.456;2024-01-16T09:54:57;13.90;;;9.57;;
82526;SDS011;72188;41.974;21.456;2024-01-16T09:57:25;23.02;;;14.18;;
82526;SDS011;72188;41.974;21.456;2024-01-16T09:59:51;20.90;;;13.50;;
82526;SDS011;72188;41.974;21.456;2024-01-16T10:02:18;27.50;;;17.30;;
82526;SDS011;72188;41.974;21.456;2024-01-16T10:04:46;21.33;;;13.68;;
82526;SDS011;72188;41.974;21.456;2024-01-16T10:07:12;18.42;;;10.50;;
82526;SDS011;72188;41.974;21.456;2024-01-16T10:09:40;16.75;;;10.02;;
82526;SDS011;72188;41.974;21.456;2024-01-16T10:12:06;14.95;;;8.65;;
82526;SDS011;72188;41.974;21.456;2024-01-16T10:14:33;9.50;;;5.32;;
82526;SDS011;72188;41.974;21.456;2024-01-16T10:17:00;7.13;;;4.13;;
82526;SDS011;72188;41.974;21.456;2024-01-16T10:19:50;13.80;;;7.50;;
82526;SDS011;72188;41.974;21.456;2024-01-16T10:22:20;5.15;;;3.10;;
82526;SDS011;72188;41.974;21.456;2024-01-16T10:24:47;6.63;;;3.80;;
82526;SDS011;72188;41.974;21.456;2024-01-16T10:27:14;26.65;;;9.15;;
82526;SDS011;72188;41.974;21.456;2024-01-16T10:30:00;20.55;;;9.00;;
82526;SDS011;72188;41.974;21.456;2024-01-16T10:32:28;10.43;;;5.97;;
82526;SDS011;72188;41.974;21.456;2024-01-16T10:35:04;7.15;;;4.82;;
82526;SDS011;72188;41.974;21.456;2024-01-16T10:37:31;8.48;;;4.78;;
82526;SDS011;72188;41.974;21.456;2024-01-16T10:40:06;5.18;;;3.38;;
82526;SDS011;72188;41.974;21.456;2024-01-16T10:42:33;4.82;;;3.35;;
82526;SDS011;72188;41.974;21.456;2024-01-16T10:44:59;6.75;;;4.57;;
82526;SDS011;72188;41.974;21.456;2024-01-16T10:47:25;6.30;;;4.30;;
82526;SDS011;72188;41.974;21.456;2024-01-16T10:49:51;7.30;;;4.78;;
82526;SDS011;72188;41.974;21.456;2024-01-16T10:52:17;6.82;;;5.05;;
82526;SDS011;72188;41.974;21.456;2024-01-16T10:54:46;9.07;;;5.70;;
82526;SDS011;72188;41.974;21.456;2024-01-16T10:57:14;12.93;;;8.00;;
82526;SDS011;72188;41.974;21.456;2024-01-16T11:02:22;8.02;;;5.32;;
82526;SDS011;72188;41.974;21.456;2024-01-16T11:04:50;7.30;;;4.30;;
82526;SDS011;72188;41.974;21.456;2024-01-16T11:07:19;8.45;;;5.07;;
82526;SDS011;72188;41.974;21.456;2024-01-16T11:09:47;9.52;;;5.00;;
82526;SDS011;72188;41.974;21.456;2024-01-16T11:12:14;10.05;;;6.03;;
82526;SDS011;72188;41.974;21.456;2024-01-16T11:14:43;7.78;;;5.30;;
82526;SDS011;72188;41.974;21.456;2024-01-16T11:17:10;19.00;;;10.05;;
82526;SDS011;72188;41.974;21.456;2024-01-16T11:19:42;19.75;;;8.88;;
82526;SDS011;72188;41.974;21.456;2024-01-16T11:22:09;10.20;;;5.45;;
82526;SDS011;72188;41.974;21.456;2024-01-16T11:24:35;10.07;;;5.78;;
82526;SDS011;72188;41.974;21.456;2024-01-16T11:27:01;10.77;;;5.50;;
82526;SDS011;72188;41.974;21.456;2024-01-16T11:31:55;9.88;;;5.57;;
82526;SDS011;72188;41.974;21.456;2024-01-16T11:37:13;10.57;;;5.95;;
82526;SDS011;72188;41.974;21.456;2024-01-16T11:39:39;8.50;;;5.97;;
82526;SDS011;72188;41.974;21.456;2024-01-16T11:42:05;11.88;;;6.47;;
82526;SDS011;72188;41.974;21.456;2024-01-16T11:47:03;11.75;;;5.95;;
82526;SDS011;72188;41.974;21.456;2024-01-16T11:49:29;17.02;;;6.55;;
82526;SDS011;72188;41.974;21.456;2024-01-16T11:51:57;8.32;;;5.68;;
82526;SDS011;72188;41.974;21.456;2024-01-16T11:54:23;12.05;;;6.68;;
82526;SDS011;72188;41.974;21.456;2024-01-16T12:01:54;11.05;;;6.40;;
82526;SDS011;72188;41.974;21.456;2024-01-16T12:04:24;9.50;;;6.45;;
82526;SDS011;72188;41.974;21.456;2024-01-16T12:06:59;8.88;;;6.32;;
82526;SDS011;72188;41.974;21.456;2024-01-16T12:09:26;8.50;;;5.68;;
82526;SDS011;72188;41.974;21.456;2024-01-16T12:11:59;10.27;;;6.60;;
82526;SDS011;72188;41.974;21.456;2024-01-16T12:14:29;8.88;;;5.97;;
82526;SDS011;72188;41.974;21.456;2024-01-16T12:17:08;9.63;;;6.95;;
82526;SDS011;72188;41.974;21.456;2024-01-16T12:19:35;14.70;;;7.32;;
82526;SDS011;72188;41.974;21.456;2024-01-16T12:22:01;18.27;;;10.23;;
82526;SDS011;72188;41.974;21.456;2024-01-16T12:24:27;12.77;;;6.90;;
82526;SDS011;72188;41.974;21.456;2024-01-16T12:26:57;9.43;;;6.18;;
82526;SDS011;72188;41.974;21.456;2024-01-16T12:29:23;8.23;;;5.25;;
82526;SDS011;72188;41.974;21.456;2024-01-16T12:31:49;10.40;;;6.30;;
82526;SDS011;72188;41.974;21.456;2024-01-16T12:34:15;15.65;;;7.70;;
82526;SDS011;72188;41.974;21.456;2024-01-16T12:36:41;10.57;;;5.82;;
82526;SDS011;72188;41.974;21.456;2024-01-16T12:39:10;7.78;;;5.40;;
82526;SDS011;72188;41.974;21.456;2024-01-16T12:41:40;8.10;;;5.65;;
82526;SDS011;72188;41.974;21.456;2024-01-16T12:44:07;12.55;;;6.30;;
82526;SDS011;72188;41.974;21.456;2024-01-16T12:46:33;10.35;;;6.00;;
82526;SDS011;72188;41.974;21.456;2024-01-16T12:49:02;12.52;;;7.10;;
82526;SDS011;72188;41.974;21.456;2024-01-16T12:51:28;10.35;;;6.35;;
82526;SDS011;72188;41.974;21.456;2024-01-16T12:54:09;10.98;;;5.75;;
82526;SDS011;72188;41.974;21.456;2024-01-16T12:56:35;13.70;;;7.82;;
82526;SDS011;72188;41.974;21.456;2024-01-16T12:59:08;12.40;;;6.35;;
82526;SDS011;72188;41.974;21.456;2024-01-16T13:01:34;14.35;;;8.32;;
82526;SDS011;72188;41.974;21.456;2024-01-16T13:04:03;9.75;;;6.20;;
82526;SDS011;72188;41.974;21.456;2024-01-16T13:06:29;16.00;;;9.30;;
82526;SDS011;72188;41.974;21.456;2024-01-16T13:09:03;22.52;;;11.90;;
82526;SDS011;72188;41.974;21.456;2024-01-16T13:11:47;23.38;;;11.27;;
82526;SDS011;72188;41.974;21.456;2024-01-16T13:14:14;16.25;;;9.57;;
82526;SDS011;72188;41.974;21.456;2024-01-16T13:16:40;17.63;;;9.35;;
82526;SDS011;72188;41.974;21.456;2024-01-16T13:19:06;14.75;;;9.55;;
82526;SDS011;72188;41.974;21.456;2024-01-16T13:21:35;21.02;;;9.68;;
82526;SDS011;72188;41.974;21.456;2024-01-16T13:24:02;15.32;;;7.85;;
82526;SDS011;72188;41.974;21.456;2024-01-16T13:26:29;15.35;;;9.20;;
82526;SDS011;72188;41.974;21.456;2024-01-16T13:28:55;14.90;;;8.93;;
82526;SDS011;72188;41.974;21.456;2024-01-16T13:31:21;13.45;;;8.52;;
82526;SDS011;72188;41.974;21.456;2024-01-16T13:33:47;17.15;;;7.85;;
82526;SDS011;72188;41.974;21.456;2024-01-16T13:36:13;13.10;;;7.85;;
82526;SDS011;72188;41.974;21.456;2024-01-16T13:38:39;15.00;;;8.80;;
82526;SDS011;72188;41.974;21.456;2024-01-16T13:41:06;13.18;;;9.20;;
82526;SDS011;72188;41.974;21.456;2024-01-16T13:43:32;13.73;;;8.52;;
82526;SDS011;72188;41.974;21.456;2024-01-16T13:45:58;13.77;;;8.30;;
82526;SDS011;72188;41.974;21.456;2024-01-16T13:48:24;14.90;;;9.30;;
82526;SDS011;72188;41.974;21.456;2024-01-16T13:50:50;18.15;;;10.05;;
82526;SDS011;72188;41.974;21.456;2024-01-16T13:53:17;34.45;;;12.10;;
82526;SDS011;72188;41.974;21.456;2024-01-16T13:55:43;19.13;;;12.30;;
82526;SDS011;72188;41.974;21.456;2024-01-16T13:58:09;40.05;;;19.90;;
82526;SDS011;72188;41.974;21.456;2024-01-16T14:00:35;28.77;;;13.73;;
82526;SDS011;72188;41.974;21.456;2024-01-16T14:03:02;21.98;;;11.32;;
82526;SDS011;72188;41.974;21.456;2024-01-16T14:07:56;21.10;;;11.32;;
82526;SDS011;72188;41.974;21.456;2024-01-16T14:10:22;27.02;;;15.07;;
82526;SDS011;72188;41.974;21.456;2024-01-16T14:12:51;22.90;;;13.73;;
82526;SDS011;72188;41.974;21.456;2024-01-16T14:15:18;30.27;;;12.88;;
82526;SDS011;72188;41.974;21.456;2024-01-16T14:17:55;18.65;;;10.32;;
82526;SDS011;72188;41.974;21.456;2024-01-16T14:20:22;23.52;;;11.07;;
82526;SDS011;72188;41.974;21.456;2024-01-16T14:22:55;17.42;;;9.40;;
82526;SDS011;72188;41.974;21.456;2024-01-16T14:25:22;22.90;;;10.63;;
82526;SDS011;72188;41.974;21.456;2024-01-16T14:27:59;22.90;;;12.88;;